createdAt,value
2018-07-09T00:00:45.072Z,57.80
2018-07-09T00:03:14.598Z,57.30
2018-07-09T00:08:13.098Z,57.10
2018-07-09T00:10:54.001Z,57.50
2018-07-09T00:13:22.993Z,57.00
2018-07-09T00:15:51.339Z,57.60
2018-07-09T00:18:20.859Z,58.20
2018-07-09T00:20:49.150Z,58.10
2018-07-09T00:23:17.798Z,58.30
2018-07-09T00:25:47.512Z,58.70
2018-07-09T00:28:16.699Z,58.80
2018-07-09T00:30:45.123Z,60.00
2018-07-09T00:33:13.460Z,60.00
2018-07-09T00:35:41.755Z,60.50
2018-07-09T00:38:10.093Z,60.80
2018-07-09T00:40:38.368Z,61.10
2018-07-09T00:43:06.710Z,60.90
2018-07-09T00:45:35.004Z,60.00
2018-07-09T00:50:31.396Z,61.70
2018-07-09T00:53:00.547Z,62.10
2018-07-09T00:55:28.871Z,61.60
2018-07-09T00:57:57.207Z,60.40
2018-07-09T01:00:25.608Z,60.30
2018-07-09T01:02:53.963Z,60.50
2018-07-09T01:05:22.260Z,61.40
2018-07-09T01:07:50.614Z,61.30
2018-07-09T01:10:19.550Z,61.40
2018-07-09T01:12:47.942Z,62.00
2018-07-09T01:15:16.270Z,62.70
2018-07-09T01:17:44.771Z,63.20
2018-07-09T01:20:13.074Z,62.60
2018-07-09T01:22:41.386Z,62.90
2018-07-09T01:27:37.759Z,62.00
2018-07-09T01:30:13.244Z,61.40
2018-07-09T01:32:41.822Z,60.80
2018-07-09T01:35:11.234Z,61.80
2018-07-09T01:37:40.239Z,61.80
2018-07-09T01:42:43.309Z,62.20
2018-07-09T01:45:11.594Z,62.00
2018-07-09T01:47:39.907Z,62.70
2018-07-09T01:50:08.243Z,62.80
2018-07-09T01:52:36.518Z,63.50
2018-07-09T01:55:04.844Z,63.80
2018-07-09T01:57:33.207Z,63.90
2018-07-09T02:00:01.515Z,63.50
2018-07-09T02:02:29.815Z,62.40
2018-07-09T02:04:58.210Z,62.00
2018-07-09T02:07:26.549Z,62.10
2018-07-09T02:09:54.867Z,63.10
2018-07-09T02:12:23.228Z,63.30
2018-07-09T02:14:51.691Z,63.40
2018-07-09T02:17:20.035Z,63.30
2018-07-09T02:19:48.360Z,63.80
2018-07-09T02:22:16.698Z,63.50
2018-07-09T02:24:45.010Z,63.30
2018-07-09T02:32:09.418Z,63.70
2018-07-09T02:34:37.776Z,63.30
2018-07-09T02:37:06.110Z,63.10
2018-07-09T02:39:34.432Z,63.40
2018-07-09T02:42:02.770Z,63.70
2018-07-09T02:44:31.080Z,64.30
2018-07-09T02:46:59.403Z,65.30
2018-07-09T02:49:27.706Z,64.50
2018-07-09T02:51:56.044Z,64.50
2018-07-09T02:54:24.384Z,64.40
2018-07-09T02:56:52.738Z,64.90
2018-07-09T02:59:21.172Z,64.60
2018-07-09T03:01:49.462Z,64.30
2018-07-09T03:04:17.778Z,64.90
2018-07-09T03:06:46.112Z,64.00
2018-07-09T03:09:14.471Z,64.60
2018-07-09T03:11:42.861Z,65.20
2018-07-09T03:14:11.121Z,65.20
2018-07-09T03:16:39.464Z,66.00
2018-07-09T03:19:07.768Z,66.00
2018-07-09T03:21:36.084Z,65.10
2018-07-09T03:24:04.503Z,65.00
2018-07-09T03:26:32.819Z,64.50
2018-07-09T03:29:01.132Z,64.90
2018-07-09T03:31:29.472Z,64.00
2018-07-09T03:33:57.808Z,63.90
2018-07-09T03:36:26.104Z,63.20
2018-07-09T03:38:54.439Z,64.40
2018-07-09T03:41:22.743Z,63.60
2018-07-09T03:43:51.365Z,63.70
2018-07-09T03:46:19.691Z,64.30
2018-07-09T03:48:48.034Z,64.50
2018-07-09T03:51:16.361Z,65.10
2018-07-09T03:53:44.774Z,65.20
2018-07-09T03:56:13.119Z,66.00
2018-07-09T03:58:41.534Z,65.80
2018-07-09T04:01:09.835Z,65.20
2018-07-09T04:03:38.141Z,66.00
2018-07-09T04:06:06.495Z,65.60
2018-07-09T04:08:34.799Z,65.20
2018-07-09T04:11:03.122Z,65.40
2018-07-09T04:13:31.425Z,63.80
2018-07-09T04:15:59.736Z,65.20
2018-07-09T04:18:28.043Z,64.50
2018-07-09T04:20:56.959Z,64.60
2018-07-09T04:23:25.304Z,64.40
2018-07-09T04:25:53.641Z,64.10
2018-07-09T04:28:22.368Z,64.90
2018-07-09T04:30:51.026Z,65.60
2018-07-09T04:33:19.754Z,64.90
2018-07-09T04:35:48.214Z,65.00
2018-07-09T04:38:16.551Z,64.10
2018-07-09T04:43:14.184Z,65.20
2018-07-09T04:45:42.472Z,64.00
2018-07-09T04:48:10.769Z,64.00
2018-07-09T04:50:39.054Z,64.00
2018-07-09T04:53:07.407Z,63.20
2018-07-09T04:55:35.697Z,63.40
2018-07-09T04:58:04.014Z,63.80
2018-07-09T05:00:32.382Z,63.80
2018-07-09T05:03:00.692Z,63.70
2018-07-09T05:05:29.076Z,63.30
2018-07-09T05:07:57.566Z,63.60
2018-07-09T05:10:26.178Z,63.10
2018-07-09T05:12:54.778Z,63.10
2018-07-09T05:15:23.068Z,63.10
2018-07-09T05:17:51.383Z,63.00
2018-07-09T05:20:19.852Z,62.90
2018-07-09T05:22:48.834Z,62.60
2018-07-09T05:25:17.227Z,62.70
2018-07-09T05:27:45.633Z,63.50
2018-07-09T05:30:13.962Z,63.70
2018-07-09T05:32:42.258Z,63.40
2018-07-09T05:35:10.596Z,63.50
2018-07-09T05:37:38.945Z,63.10
2018-07-09T05:40:07.582Z,62.50
2018-07-09T05:42:37.134Z,62.60
2018-07-09T05:45:05.930Z,63.20
2018-07-09T05:47:34.986Z,63.20
2018-07-09T05:50:03.324Z,63.20
2018-07-09T05:52:31.699Z,62.90
2018-07-09T05:55:00.074Z,63.50
2018-07-09T05:57:28.418Z,63.10
2018-07-09T05:59:56.837Z,63.00
2018-07-09T06:02:25.333Z,62.40
2018-07-09T06:04:53.666Z,62.00
2018-07-09T06:07:22.021Z,61.20
2018-07-09T06:09:51.109Z,60.70
2018-07-09T06:12:19.414Z,60.20
2018-07-09T06:14:47.700Z,60.10
2018-07-09T06:17:16.019Z,60.00
2018-07-09T06:19:44.320Z,59.60
2018-07-09T06:22:12.618Z,59.60
2018-07-09T06:24:41.037Z,59.60
2018-07-09T06:27:09.363Z,59.30
2018-07-09T06:29:37.663Z,59.50
2018-07-09T06:32:06.015Z,59.80
2018-07-09T06:34:34.319Z,59.70
2018-07-09T06:37:02.739Z,59.40
2018-07-09T06:39:31.075Z,59.30
2018-07-09T06:41:59.399Z,59.40
2018-07-09T06:44:27.877Z,59.30
2018-07-09T06:46:56.184Z,59.30
2018-07-09T06:49:24.528Z,59.00
2018-07-09T06:54:20.837Z,59.50
2018-07-09T06:56:49.242Z,59.00
2018-07-09T06:59:17.534Z,58.90
2018-07-09T07:04:13.855Z,58.80
2018-07-09T07:06:42.163Z,58.50
2018-07-09T07:11:38.450Z,58.10
2018-07-09T07:14:06.785Z,58.20
2018-07-09T07:16:35.100Z,58.10
2018-07-09T07:19:03.384Z,58.10
2018-07-09T07:21:31.735Z,57.90
2018-07-09T07:24:00.030Z,57.80
2018-07-09T07:26:28.390Z,57.70
2018-07-09T07:28:56.789Z,57.40
2018-07-09T07:31:25.080Z,57.30
2018-07-09T07:33:53.723Z,57.10
2018-07-09T07:36:22.048Z,57.20
2018-07-09T07:38:50.511Z,57.00
2018-07-09T07:41:18.843Z,57.00
2018-07-09T07:43:47.207Z,57.00
2018-07-09T07:53:02.088Z,56.90
2018-07-09T07:55:30.504Z,56.40
2018-07-09T07:57:58.845Z,56.20
2018-07-09T08:00:27.155Z,56.00
2018-07-09T08:02:55.488Z,56.00
2018-07-09T08:05:23.848Z,55.90
2018-07-09T08:07:52.190Z,55.90
2018-07-09T08:10:20.487Z,55.70
2018-07-09T08:13:27.169Z,55.50
2018-07-09T08:15:17.184Z,55.50
2018-07-09T08:17:45.474Z,55.50
2018-07-09T08:20:13.839Z,55.30
2018-07-09T08:22:42.119Z,55.30
2018-07-09T08:25:10.759Z,55.10
2018-07-09T08:27:38.955Z,55.10
2018-07-09T08:30:07.511Z,54.90
2018-07-09T08:32:35.900Z,54.70
2018-07-09T08:37:32.269Z,54.70
2018-07-09T08:40:00.575Z,54.80
2018-07-09T08:42:28.944Z,54.60
2018-07-09T08:44:57.243Z,54.40
2018-07-09T08:47:25.577Z,54.30
2018-07-09T08:49:53.837Z,54.20
2018-07-09T08:52:22.167Z,54.00
2018-07-09T08:54:50.491Z,54.10
2018-07-09T08:57:18.818Z,54.00
2018-07-09T08:59:47.163Z,53.80
2018-07-09T09:02:15.469Z,53.80
2018-07-09T09:04:43.832Z,53.60
2018-07-09T09:07:12.155Z,53.50
2018-07-09T09:09:40.540Z,53.50
2018-07-09T09:12:09.112Z,53.50
2018-07-09T09:14:37.510Z,53.60
2018-07-09T09:17:05.796Z,53.40
2018-07-09T09:19:34.118Z,53.20
2018-07-09T09:22:02.475Z,53.10
2018-07-09T09:24:30.779Z,53.10
2018-07-09T09:26:59.114Z,53.10
2018-07-09T09:29:27.427Z,53.10
2018-07-09T09:31:55.755Z,53.10
2018-07-09T09:34:24.038Z,53.20
2018-07-09T09:39:20.386Z,52.90
2018-07-09T09:41:48.768Z,52.60
2018-07-09T09:44:17.124Z,52.60
2018-07-09T09:46:45.443Z,52.70
2018-07-09T09:49:13.801Z,52.60
2018-07-09T09:51:42.059Z,52.60
2018-07-09T09:54:10.368Z,52.40
2018-07-09T09:56:38.644Z,52.00
2018-07-09T09:59:06.971Z,52.10
2018-07-09T10:01:35.278Z,52.70
2018-07-09T10:04:03.614Z,51.90
2018-07-09T10:06:31.971Z,52.00
2018-07-09T10:09:00.282Z,51.80
2018-07-09T10:11:28.581Z,51.80
2018-07-09T10:13:56.967Z,51.40
2018-07-09T10:16:25.294Z,51.70
2018-07-09T10:18:53.629Z,51.70
2018-07-09T10:21:21.999Z,51.80
2018-07-09T10:23:50.291Z,52.10
2018-07-09T10:26:18.622Z,51.80
2018-07-09T10:28:46.944Z,51.40
2018-07-09T10:31:15.295Z,51.40
2018-07-09T10:33:43.847Z,51.20
2018-07-09T10:36:12.226Z,51.30
2018-07-09T10:38:40.549Z,51.10
2018-07-09T10:41:08.937Z,50.60
2018-07-09T10:43:37.467Z,50.90
2018-07-09T10:46:05.796Z,50.90
2018-07-09T10:48:34.135Z,50.70
2018-07-09T10:51:02.520Z,50.80
2018-07-09T10:53:30.877Z,50.60
2018-07-09T10:55:59.178Z,50.60
2018-07-09T10:58:27.552Z,50.40
2018-07-09T11:02:25.064Z,50.60
2018-07-09T11:04:53.377Z,50.50
2018-07-09T11:07:21.734Z,50.30
2018-07-09T11:09:50.062Z,50.40
2018-07-09T11:12:18.360Z,50.30
2018-07-09T11:14:46.725Z,50.70
2018-07-09T11:17:15.036Z,50.60
2018-07-09T11:19:43.319Z,50.40
2018-07-09T11:22:11.684Z,50.10
2018-07-09T11:24:40.673Z,50.00
2018-07-09T11:27:08.956Z,50.00
2018-07-09T11:29:37.304Z,49.80
2018-07-09T11:32:05.653Z,49.70
2018-07-09T11:34:33.957Z,49.60
2018-07-09T11:37:02.273Z,49.40
2018-07-09T11:39:30.612Z,49.50
2018-07-09T11:41:58.952Z,49.60
2018-07-09T11:44:28.098Z,49.20
2018-07-09T11:46:56.647Z,49.10
2018-07-09T11:49:24.955Z,48.80
2018-07-09T11:51:53.559Z,48.90
2018-07-09T11:54:21.895Z,48.90
2018-07-09T11:56:50.177Z,48.90
2018-07-09T11:59:18.541Z,48.90
2018-07-09T12:01:46.865Z,48.90
2018-07-09T12:04:15.169Z,49.00
2018-07-09T12:06:44.042Z,49.00
2018-07-09T12:09:12.462Z,49.00
2018-07-09T12:11:40.848Z,49.00
2018-07-09T12:14:09.175Z,49.00
2018-07-09T12:16:37.454Z,49.00
2018-07-09T12:19:05.805Z,49.10
2018-07-09T12:21:34.109Z,49.00
2018-07-09T12:24:02.404Z,48.60
2018-07-09T12:26:30.744Z,48.50
2018-07-09T12:28:59.044Z,48.40
2018-07-09T12:31:27.403Z,48.50
2018-07-09T12:33:55.699Z,48.60
2018-07-09T12:36:24.244Z,48.50
2018-07-09T12:38:52.433Z,48.70
2018-07-09T12:41:20.790Z,48.70
2018-07-09T12:43:49.334Z,48.70
2018-07-09T12:46:17.615Z,48.60
2018-07-09T12:48:45.987Z,48.50
2018-07-09T12:53:42.339Z,48.80
2018-07-09T12:56:10.711Z,49.20
2018-07-09T12:58:39.043Z,48.40
2018-07-09T13:01:07.507Z,48.40
2018-07-09T13:03:35.867Z,48.20
2018-07-09T13:06:04.231Z,48.20
2018-07-09T13:11:00.692Z,48.10
2018-07-09T13:15:57.062Z,47.90
2018-07-09T13:18:25.360Z,48.00
2018-07-09T13:20:53.712Z,48.10
2018-07-09T13:23:22.023Z,48.00
2018-07-09T13:25:50.330Z,48.00
2018-07-09T13:28:18.624Z,47.90
2018-07-09T13:30:46.999Z,48.00
2018-07-09T13:33:15.311Z,48.00
2018-07-09T13:35:43.655Z,47.90
2018-07-09T13:38:11.991Z,47.90
2018-07-09T13:40:40.299Z,47.70
2018-07-09T13:43:08.690Z,47.70
2018-07-09T13:45:37.022Z,47.80
2018-07-09T13:48:05.335Z,47.80
2018-07-09T13:50:34.259Z,48.70
2018-07-09T13:53:02.550Z,47.90
2018-07-09T13:55:31.251Z,47.80
2018-07-09T13:57:59.596Z,47.60
2018-07-09T14:00:27.992Z,47.40
2018-07-09T14:02:56.429Z,47.20
2018-07-09T14:05:24.772Z,46.90
2018-07-09T14:10:21.264Z,46.70
2018-07-09T14:12:49.976Z,46.30
2018-07-09T14:15:18.279Z,45.80
2018-07-09T14:17:46.611Z,45.30
2018-07-09T14:20:24.150Z,45.20
2018-07-09T14:22:52.711Z,45.00
2018-07-09T14:25:21.048Z,45.10
2018-07-09T14:27:49.374Z,44.70
2018-07-09T14:30:17.884Z,44.90
2018-07-09T14:32:46.191Z,44.50
2018-07-09T14:35:14.519Z,44.30
2018-07-09T14:37:42.894Z,44.50
2018-07-09T14:40:11.206Z,44.80
2018-07-09T14:42:39.534Z,44.90
2018-07-09T14:45:09.086Z,44.40
2018-07-09T14:47:37.363Z,44.30
2018-07-09T14:50:05.787Z,44.40
2018-07-09T14:52:34.181Z,44.40
2018-07-09T14:55:02.459Z,44.00
2018-07-09T14:57:30.788Z,44.00
2018-07-09T14:59:59.094Z,44.10
2018-07-09T15:02:27.476Z,44.40
2018-07-09T15:04:55.774Z,44.90
2018-07-09T15:07:24.373Z,45.00
2018-07-09T15:09:52.738Z,45.10
2018-07-09T15:12:21.045Z,45.00
2018-07-09T15:14:49.364Z,45.20
2018-07-09T15:17:17.756Z,45.00
2018-07-09T15:19:46.110Z,44.90
2018-07-09T15:22:14.424Z,45.40
2018-07-09T15:24:42.784Z,45.50
2018-07-09T15:27:11.143Z,45.70
2018-07-09T15:29:39.621Z,45.90
2018-07-09T15:32:19.236Z,46.00
2018-07-09T15:34:47.560Z,46.40
2018-07-09T15:37:15.938Z,46.40
2018-07-09T15:39:44.235Z,46.70
2018-07-09T15:42:12.564Z,47.10
2018-07-09T15:44:40.998Z,47.20
2018-07-09T15:47:09.638Z,47.10
2018-07-09T15:49:38.314Z,47.50
2018-07-09T15:52:06.713Z,47.50
2018-07-09T15:54:35.005Z,47.70
2018-07-09T15:57:03.332Z,47.80
2018-07-09T15:59:31.808Z,47.90
2018-07-09T16:02:00.125Z,48.00
2018-07-09T16:09:24.743Z,48.00
2018-07-09T16:11:53.046Z,48.00
2018-07-09T16:14:21.360Z,47.90
2018-07-09T16:16:49.695Z,48.00
2018-07-09T16:19:18.300Z,48.30
2018-07-09T16:21:46.714Z,48.60
2018-07-09T16:24:15.039Z,48.80
2018-07-09T16:26:43.392Z,49.10
2018-07-09T16:29:11.939Z,49.20
2018-07-09T16:31:40.149Z,49.20
2018-07-09T16:34:08.795Z,49.10
2018-07-09T16:36:37.337Z,49.20
2018-07-09T16:41:34.775Z,49.50
2018-07-09T16:44:03.155Z,49.30
2018-07-09T16:46:31.489Z,49.40
2018-07-09T16:48:59.937Z,49.00
2018-07-09T16:51:28.287Z,49.10
2018-07-09T16:53:56.610Z,49.00
2018-07-09T16:56:24.947Z,48.90
2018-07-09T16:58:53.301Z,49.00
2018-07-09T17:01:21.610Z,48.60
2018-07-09T17:03:49.951Z,48.70
2018-07-09T17:06:18.286Z,48.60
2018-07-09T17:08:46.610Z,48.50
2018-07-09T17:11:14.924Z,48.50
2018-07-09T17:13:43.252Z,47.80
2018-07-09T17:16:12.791Z,48.40
2018-07-09T17:18:41.206Z,48.30
2018-07-09T17:23:37.614Z,48.10
2018-07-09T17:26:05.989Z,48.00
2018-07-09T17:28:34.432Z,48.10
2018-07-09T17:31:02.799Z,48.00
2018-07-09T17:33:31.099Z,48.10
2018-07-09T17:35:59.490Z,47.30
2018-07-09T17:38:27.927Z,48.50
2018-07-09T17:40:56.324Z,48.80
2018-07-09T17:43:24.621Z,48.10
2018-07-09T17:45:52.960Z,48.20
2018-07-09T17:48:21.276Z,48.20
2018-07-09T17:50:49.606Z,48.30
2018-07-09T17:53:18.141Z,48.20
2018-07-09T17:55:46.481Z,48.80
2018-07-09T17:58:15.044Z,48.50
2018-07-09T18:00:43.332Z,48.10
2018-07-09T18:03:11.733Z,48.10
2018-07-09T18:05:40.152Z,48.10
2018-07-09T18:08:08.506Z,48.80
2018-07-09T18:10:36.826Z,49.10
2018-07-09T18:13:05.222Z,48.10
2018-07-09T18:15:33.542Z,48.00
2018-07-09T18:18:01.858Z,48.00
2018-07-09T18:20:30.191Z,48.00
2018-07-09T18:22:58.530Z,48.00
2018-07-09T18:25:26.935Z,48.00
2018-07-09T18:27:56.036Z,48.20
2018-07-09T18:30:24.570Z,48.40
2018-07-09T18:32:53.198Z,48.30
2018-07-09T20:50:11.018Z,47.30
2018-07-09T20:52:38.464Z,48.50
2018-07-09T20:55:05.755Z,48.20
2018-07-09T20:57:33.011Z,48.50
2018-07-09T21:00:00.312Z,48.70
2018-07-09T21:02:27.725Z,49.30
2018-07-09T21:04:55.204Z,48.60
2018-07-09T21:07:22.458Z,48.40
2018-07-09T21:09:49.702Z,48.60
2018-07-09T21:12:17.173Z,48.40
2018-07-09T21:14:44.446Z,48.90
2018-07-09T21:17:11.724Z,49.10
2018-07-09T21:19:39.007Z,48.90
2018-07-09T21:22:06.313Z,49.00
2018-07-09T21:24:33.578Z,49.00
2018-07-09T21:27:00.828Z,49.00
2018-07-09T21:29:28.113Z,49.20
2018-07-09T21:31:55.384Z,48.50
2018-07-09T21:34:22.681Z,49.80
2018-07-09T21:36:50.005Z,48.80
2018-07-09T21:39:17.283Z,48.60
2018-07-09T21:41:44.594Z,48.80
2018-07-09T21:44:11.867Z,48.90
2018-07-09T21:46:39.147Z,48.70
2018-07-09T21:49:06.409Z,47.20
2018-07-09T21:51:33.682Z,48.10
2018-07-09T21:54:00.968Z,45.80
2018-07-09T21:56:28.349Z,47.60
2018-07-09T21:58:55.618Z,47.40
2018-07-09T22:01:22.947Z,47.80
2018-07-09T22:03:50.235Z,47.40
2018-07-09T22:06:17.499Z,47.30
2018-07-09T22:08:44.759Z,46.90
2018-07-09T22:11:12.023Z,47.00
2018-07-09T22:13:39.275Z,47.50
2018-07-09T22:16:06.557Z,47.00
2018-07-09T22:18:33.799Z,46.80
2018-07-09T22:21:01.098Z,45.80
2018-07-09T22:23:28.407Z,46.70
2018-07-09T22:25:55.663Z,46.00
2018-07-09T22:28:22.928Z,46.70
2018-07-09T22:30:51.259Z,46.80
2018-07-09T22:33:19.568Z,46.50
2018-07-09T22:35:47.889Z,47.10
2018-07-09T22:38:16.242Z,46.70
2018-07-09T22:40:44.549Z,46.70
2018-07-09T22:43:24.319Z,47.80
2018-07-09T22:45:52.656Z,46.70
2018-07-09T22:48:21.010Z,47.20
2018-07-09T22:50:49.355Z,47.00
2018-07-09T22:53:17.772Z,47.10
2018-07-09T22:55:57.423Z,47.00
2018-07-09T22:58:25.741Z,47.30
2018-07-09T23:00:54.121Z,47.30
2018-07-09T23:03:22.473Z,47.30
2018-07-09T23:05:50.802Z,47.40
2018-07-09T23:08:19.175Z,47.60
2018-07-09T23:13:20.617Z,47.60
2018-07-09T23:16:00.339Z,47.40
2018-07-09T23:18:40.011Z,47.70
2018-07-09T23:21:35.302Z,48.40
2018-07-09T23:24:02.857Z,48.90
2018-07-09T23:26:30.112Z,48.50
2018-07-09T23:28:57.450Z,48.50
2018-07-09T23:31:24.747Z,48.70
2018-07-09T23:33:52.191Z,48.90
2018-07-09T23:36:19.655Z,48.60
2018-07-09T23:38:46.955Z,49.00
2018-07-09T23:41:14.242Z,48.80
2018-07-09T23:43:41.527Z,48.70
2018-07-09T23:46:08.815Z,48.30
2018-07-09T23:48:36.108Z,48.10
2018-07-09T23:51:03.480Z,48.80
2018-07-09T23:53:31.141Z,48.90
2018-07-09T23:56:15.769Z,48.70
2018-07-09T23:59:52.962Z,48.70
